Monday, October 16, 2017, 8:34 PM EDT
Back to Local

KBDR, Sikorsky Memorial Airport

Location: Stratford, CT, United States Lat: 41.167
Local Time: 8:34 PM EDT ( 0:34 GMT) Lon: -73.133
Time Zone: US/Eastern Elev: 9 ft

Show me the last for .
Show Decoded

2017-10-16 19:52 METAR KBDR 162352Z 33004KT 10SM CLR 10/03 A3012 RMK AO2 SLP201 T01000028 10139
                 20100 51029 =
2017-10-16 18:52 METAR KBDR 162252Z 33007KT 10SM CLR 11/03 A3009 RMK AO2 SLP190 T01110028 =
2017-10-16 17:52 METAR KBDR 162152Z 34010KT 10SM CLR 12/03 A3007 RMK AO2 SLP182 T01220028 =
2017-10-16 16:52 METAR KBDR 162052Z 35009KT 10SM CLR 12/04 A3004 RMK AO2 SLP171 T01220039 51018 =
2017-10-16 15:52 METAR KBDR 161952Z 32011G18KT 10SM CLR 13/04 A3002 RMK AO2 SLP166 T01330039 =
2017-10-16 14:52 METAR KBDR 161852Z 32011KT 10SM CLR 13/04 A3000 RMK AO2 SLP159 T01280044 =
2017-10-16 13:52 METAR KBDR 161752Z 33011KT 10SM CLR 13/04 A2998 RMK AO2 SLP153 T01280039 10156
                 20128 50003 =
2017-10-16 12:52 METAR KBDR 161652Z 33015G21KT 10SM CLR 13/05 A3000 RMK AO2 SLP157 T01330050 =
2017-10-16 11:52 METAR KBDR 161552Z 34008KT 10SM FEW034 14/06 A2998 RMK AO2 SLP152 T01440061 =
2017-10-16 10:52 METAR KBDR 161452Z 34007KT 10SM CLR 14/07 A2998 RMK AO2 SLP150 T01440067 50021 $
                 =
2017-10-16 09:52 METAR KBDR 161352Z 32009KT 10SM SCT036 14/06 A2998 RMK AO2 SLP151 T01390061 $ =
2017-10-16 08:52 METAR KBDR 161252Z 35012KT 10SM OVC034 15/08 A2994 RMK AO2 SLP139 T01500078 $ =
2017-10-16 08:07 METAR KBDR 161207Z 34009KT 10SM OVC030 16/09 A2992 RMK AO2 T01560094 $ =
2017-10-16 07:52 METAR KBDR 161152Z 34008KT 10SM BKN028 OVC034 16/09 A2991 RMK AO2 RAE00 SLP129
                 P0000 60001 70004 T01560094 10206 20156 53034 $ =
2017-10-16 07:12 METAR KBDR 161112Z 33009KT 10SM BKN027 BKN120 17/11 A2987 RMK AO2 RAE00 P0000
                 T01670111 $ =
2017-10-16 06:52 METAR KBDR 161052Z 29010KT 10SM -RA FEW030 BKN120 17/11 A2986 RMK AO2 RAE07B36
                 SLP112 P0000 T01670111 $ =
2017-10-16 05:52 METAR KBDR 160952Z AUTO 31007KT 10SM -RA SCT055 SCT070 OVC100 17/12 A2984 RMK
                 AO2 RAB0855E24B46 SLP103 P0001 T01720122 $ =
2017-10-16 04:52 METAR KBDR 160852Z AUTO 29009G17KT 10SM SCT070 OVC090 18/13 A2981 RMK AO2
                 RAB10E22 SLP096 P0000 60000 T01780128 53009 $ =
2017-10-16 03:52 METAR KBDR 160752Z AUTO 30012G22KT 10SM FEW050 OVC065 19/14 A2981 RMK AO2 RAE10
                 SLP094 P0000 T01890144 $ =
2017-10-16 02:52 METAR KBDR 160652Z AUTO 30009KT 10SM -RA FEW013 BKN037 OVC070 20/18 A2979 RMK
                 AO2 RAB10 SLP088 P0000 T02000178 $ =
2017-10-16 02:05 METAR KBDR 160605Z AUTO 26009KT 10SM SCT016 OVC070 21/19 A2979 RMK AO2 T02060189
                 $ =
2017-10-16 01:52 METAR KBDR 160552Z AUTO 24007KT 10SM BKN015 BKN023 OVC070 21/19 A2979 RMK AO2
                 RAB09E51 SLP087 P0000 60000 T02060189 10211 20206 56004 $ =
2017-10-16 00:52 METAR KBDR 160452Z AUTO 23011KT 10SM OVC017 21/18 A2980 RMK AO2 SLP090 T02060183
                 402390189 $ =
2017-10-15 23:52 METAR KBDR 160352Z AUTO 22014KT 10SM OVC017 21/18 A2979 RMK AO2 SLP087 T02060183
                 $ =
2017-10-15 22:52 METAR KBDR 160252Z AUTO 22015KT 10SM OVC022 21/18 A2980 RMK AO2 SLP091 T02110178
                 56006 $ =
2017-10-15 21:52 METAR KBDR 160152Z 22018KT 10SM OVC021 21/17 A2981 RMK AO2 SLP095 T02110172 $ =
2017-10-15 20:52 METAR KBDR 160052Z 21013KT 10SM OVC022 21/18 A2980 RMK AO2 SLP093 T02110178 $ =

Support USWX by starting your Amazon purchase here.